Time;durP1;ratioP1;P1;durP2;ratioP2;P2;SDS_P1;SDS_P2;PMS_P1;PMS_P2;Temp;Humidity;BMP_temperature;BMP_pressure;BME280_temperature;BME280_humidity;BME280_pressure;Samples;Min_cycle;Max_cycle;Signal;HPM_P1;HPM_P2
2022/09/01 00:01:20;;;;;;;0.77;0.50;;;12.90;99.90;;;;;;5017930;28;20041;-83
2022/09/01 00:03:47;;;;;;;1.30;0.95;;;12.90;99.90;;;;;;5012880;28;20476;-83
2022/09/01 00:06:21;;;;;;;1.30;0.75;;;12.90;99.90;;;;;;5020167;28;20061;-83
2022/09/01 00:08:51;;;;;;;1.45;0.73;;;12.80;99.90;;;;;;5036868;28;20049;-83
2022/09/01 00:11:18;;;;;;;0.77;0.65;;;12.80;99.90;;;;;;5015710;28;20045;-84
2022/09/01 00:13:43;;;;;;;2.13;1.10;;;12.90;99.90;;;;;;5019811;28;20452;-83
2022/09/01 00:16:15;;;;;;;3.08;1.45;;;12.80;99.90;;;;;;5020231;28;20119;-83
2022/09/01 00:18:48;;;;;;;2.28;1.15;;;13.40;99.90;;;;;;5033530;28;20086;-83
2022/09/01 00:21:14;;;;;;;2.20;0.93;;;12.80;99.90;;;;;;5036804;28;20056;-83
2022/09/01 00:23:40;;;;;;;1.33;0.80;;;12.80;99.90;;;;;;5036016;28;20037;-83
2022/09/01 00:26:05;;;;;;;1.27;1.00;;;12.70;99.90;;;;;;5019681;28;20047;-83
2022/09/01 00:28:36;;;;;;;1.50;1.08;;;12.70;99.90;;;;;;5036661;28;20040;-84
2022/09/01 00:31:03;;;;;;;1.25;0.70;;;12.80;99.90;;;;;;5016115;28;20045;-81
2022/09/01 00:33:29;;;;;;;3.35;1.08;;;12.60;99.90;;;;;;5034620;28;20037;-81
2022/09/01 00:35:54;;;;;;;1.38;0.82;;;12.60;99.90;;;;;;5003730;28;20047;-81
2022/09/01 00:38:20;;;;;;;0.68;0.65;;;12.60;99.90;;;;;;5019980;28;20044;-81
2022/09/01 00:40:46;;;;;;;1.38;0.68;;;12.50;99.90;;;;;;5036339;28;20379;-81
2022/09/01 00:43:22;;;;;;;1.55;0.90;;;12.60;99.90;;;;;;5035780;28;20041;-81
2022/09/01 00:45:50;;;;;;;2.67;0.77;;;12.60;99.90;;;;;;5018832;28;20040;-81
2022/09/01 00:48:18;;;;;;;1.00;0.77;;;12.50;99.90;;;;;;5019588;28;20402;-82
2022/09/01 00:50:45;;;;;;;1.83;0.88;;;12.50;99.90;;;;;;5019606;28;20040;-81
2022/09/01 00:53:12;;;;;;;2.00;0.90;;;12.40;99.90;;;;;;5015452;28;20050;-81
2022/09/01 00:55:38;;;;;;;1.45;0.90;;;12.40;99.90;;;;;;5032182;28;20120;-81
2022/09/01 00:58:06;;;;;;;1.38;0.90;;;12.30;99.90;;;;;;5016156;28;20361;-81
2022/09/01 01:00:39;;;;;;;2.00;0.95;;;12.30;99.90;;;;;;5009449;28;20483;-81
2022/09/01 01:03:07;;;;;;;1.98;1.10;;;12.30;99.90;;;;;;5032022;28;20049;-81
2022/09/01 01:05:39;;;;;;;1.80;1.20;;;12.30;99.90;;;;;;5032452;28;20049;-81
2022/09/01 01:08:07;;;;;;;2.35;1.10;;;12.30;99.90;;;;;;5015302;28;20116;-81
2022/09/01 01:10:37;;;;;;;2.80;1.00;;;12.30;99.90;;;;;;5014872;28;20442;-81
2022/09/01 01:13:14;;;;;;;2.78;1.30;;;12.20;99.90;;;;;;5014719;28;20048;-81
2022/09/01 01:15:44;;;;;;;1.45;0.90;;;12.20;99.90;;;;;;5031562;28;20068;-81
2022/09/01 01:18:14;;;;;;;1.25;1.05;;;12.20;99.90;;;;;;5015544;28;20029;-81
2022/09/01 01:23:47;;;;;;;1.63;0.98;;;12.20;99.90;;;;;;5031159;28;20057;-83
2022/09/01 01:26:13;;;;;;;4.35;1.80;;;12.10;99.90;;;;;;5011734;28;20045;-83
2022/09/01 01:28:40;;;;;;;1.30;0.80;;;12.10;99.90;;;;;;5031885;28;20041;-84
2022/09/01 01:31:13;;;;;;;3.03;1.08;;;12.10;99.90;;;;;;5031338;28;20045;-84
2022/09/01 01:33:45;;;;;;;1.45;1.17;;;12.10;99.90;;;;;;5015465;28;20079;-83
2022/09/01 01:36:20;;;;;;;1.90;1.02;;;12.10;99.90;;;;;;5031355;28;20052;-84
2022/09/01 01:38:48;;;;;;;2.72;1.65;;;12.10;99.90;;;;;;5027335;28;20040;-81
2022/09/01 01:41:18;;;;;;;2.33;0.98;;;12.10;99.90;;;;;;5031728;28;20042;-81
2022/09/01 01:43:44;;;;;;;1.70;0.88;;;12.00;99.90;;;;;;5031063;28;20037;-81
2022/09/01 01:46:13;;;;;;;1.63;0.85;;;12.00;99.90;;;;;;5031387;28;20103;-81
2022/09/01 01:48:42;;;;;;;1.25;0.88;;;12.00;99.90;;;;;;5029893;28;20365;-81
2022/09/01 01:51:10;;;;;;;1.25;0.90;;;11.90;99.90;;;;;;5030187;28;20049;-81
2022/09/01 01:53:37;;;;;;;1.67;0.90;;;11.90;99.90;;;;;;5031301;28;20061;-82
2022/09/01 01:56:03;;;;;;;1.05;0.75;;;11.80;99.90;;;;;;5031510;28;20034;-83
2022/09/01 01:58:29;;;;;;;2.10;1.27;;;11.80;99.90;;;;;;5013799;28;20128;-83
2022/09/01 02:00:57;;;;;;;1.40;1.20;;;11.80;99.90;;;;;;5031349;28;20120;-83
2022/09/01 02:03:27;;;;;;;1.75;1.00;;;11.80;99.90;;;;;;5015166;28;20049;-83
2022/09/01 02:05:54;;;;;;;1.25;1.00;;;11.80;99.90;;;;;;5029103;28;20045;-83
2022/09/01 02:08:24;;;;;;;1.55;1.20;;;11.80;99.90;;;;;;5031975;28;20445;-83
2022/09/01 02:10:53;;;;;;;1.85;1.17;;;11.70;99.90;;;;;;5031788;28;20037;-82
2022/09/01 02:13:29;;;;;;;0.95;0.80;;;11.70;99.90;;;;;;5014382;28;20044;-81
2022/09/01 02:15:57;;;;;;;1.65;1.15;;;11.70;99.90;;;;;;5031284;28;20041;-81
2022/09/01 02:18:29;;;;;;;2.50;1.17;;;11.70;99.90;;;;;;5031443;28;20073;-81
2022/09/01 02:20:57;;;;;;;1.92;1.17;;;11.70;99.90;;;;;;5014700;28;20041;-81
2022/09/01 02:23:24;;;;;;;1.13;0.98;;;11.60;99.90;;;;;;5014309;28;20103;-81
2022/09/01 02:25:56;;;;;;;1.55;0.95;;;11.60;99.90;;;;;;5014772;28;20042;-81
2022/09/01 02:28:23;;;;;;;1.92;1.02;;;11.60;99.90;;;;;;5011236;28;20487;-81
2022/09/01 02:30:53;;;;;;;1.38;1.00;;;11.70;99.90;;;;;;5031246;28;20041;-81
2022/09/01 02:33:21;;;;;;;1.92;1.30;;;11.70;99.90;;;;;;5031420;28;20053;-81
2022/09/01 02:35:50;;;;;;;1.08;0.90;;;11.70;99.90;;;;;;5026717;28;20403;-81
2022/09/01 02:38:16;;;;;;;1.80;0.90;;;11.70;99.90;;;;;;5031111;28;20388;-81
2022/09/01 02:40:47;;;;;;;1.25;0.77;;;11.70;99.90;;;;;;5014296;28;20047;-81
2022/09/01 02:43:19;;;;;;;1.60;0.82;;;11.70;99.90;;;;;;5032903;28;20084;-81
2022/09/01 02:45:54;;;;;;;1.42;1.10;;;11.80;99.90;;;;;;5019220;28;20052;-83
2022/09/01 02:48:23;;;;;;;4.45;1.45;;;11.80;99.90;;;;;;5034640;28;20048;-83
2022/09/01 02:50:49;;;;;;;1.67;0.90;;;11.80;99.90;;;;;;5034490;28;20076;-83
2022/09/01 02:53:16;;;;;;;1.15;0.60;;;11.90;99.90;;;;;;5017901;28;20060;-83
2022/09/01 02:55:42;;;;;;;1.50;0.88;;;11.80;99.90;;;;;;5034943;28;20495;-83
2022/09/01 02:58:12;;;;;;;2.40;1.20;;;11.80;99.90;;;;;;5034285;28;20091;-84
2022/09/01 03:00:39;;;;;;;1.70;1.10;;;11.80;99.90;;;;;;5018827;28;20407;-81
2022/09/01 03:03:06;;;;;;;1.65;1.00;;;11.80;99.90;;;;;;5018265;28;20068;-81
2022/09/01 03:05:33;;;;;;;2.85;0.93;;;11.80;99.90;;;;;;5034693;28;20037;-81
2022/09/01 03:08:02;;;;;;;2.40;0.90;;;11.80;99.90;;;;;;5032857;28;20052;-81
2022/09/01 03:10:34;;;;;;;2.47;1.27;;;11.80;99.90;;;;;;5034491;28;20052;-81
2022/09/01 03:13:07;;;;;;;1.15;0.90;;;11.80;99.90;;;;;;5034145;28;20069;-81
2022/09/01 03:15:35;;;;;;;1.02;0.90;;;11.80;99.90;;;;;;5034808;28;20029;-81
2022/09/01 03:18:03;;;;;;;1.23;0.82;;;11.70;99.90;;;;;;5034368;28;20084;-83
2022/09/01 03:20:32;;;;;;;2.22;1.10;;;11.80;99.90;;;;;;5028882;28;20095;-83
2022/09/01 03:22:59;;;;;;;2.15;1.15;;;11.80;99.90;;;;;;5033285;28;20045;-83
2022/09/01 03:25:28;;;;;;;1.83;1.08;;;11.80;99.90;;;;;;5017156;28;20045;-83
2022/09/01 03:27:56;;;;;;;1.15;0.98;;;11.90;99.90;;;;;;5017925;28;20083;-83
2022/09/01 03:30:22;;;;;;;1.55;1.20;;;11.90;99.90;;;;;;5027125;28;20042;-83
2022/09/01 03:32:49;;;;;;;1.67;1.10;;;11.90;99.90;;;;;;4999156;28;20053;-83
2022/09/01 03:35:16;;;;;;;1.75;1.20;;;12.00;99.90;;;;;;5033851;28;20557;-83
2022/09/01 03:37:43;;;;;;;1.33;0.85;;;11.90;99.90;;;;;;5000873;28;20506;-82
2022/09/01 03:40:10;;;;;;;1.85;0.95;;;11.80;99.90;;;;;;5033927;28;20041;-82
2022/09/01 03:42:36;;;;;;;2.13;1.10;;;11.80;99.90;;;;;;5017635;28;20045;-83
2022/09/01 03:45:11;;;;;;;1.27;1.10;;;11.80;99.90;;;;;;5034243;28;20069;-83
2022/09/01 03:47:42;;;;;;;2.65;1.17;;;11.80;99.90;;;;;;5031686;28;20399;-83
2022/09/01 03:50:19;;;;;;;2.75;1.30;;;11.70;99.90;;;;;;5033482;28;20386;-82
2022/09/01 03:52:57;;;;;;;1.92;1.17;;;11.70;99.90;;;;;;5033759;28;20053;-82
2022/09/01 03:55:28;;;;;;;0.80;0.80;;;11.70;99.90;;;;;;5034054;28;20037;-83
2022/09/01 03:58:00;;;;;;;1.63;1.30;;;11.60;99.90;;;;;;5033858;28;20191;-82
2022/09/01 04:00:28;;;;;;;1.67;1.08;;;11.60;99.90;;;;;;5012622;28;20427;-82
2022/09/01 04:02:57;;;;;;;1.48;1.30;;;11.60;99.90;;;;;;5033722;28;20132;-83
2022/09/01 04:05:27;;;;;;;2.10;1.10;;;11.50;99.90;;;;;;5017176;28;20047;-82
2022/09/01 04:07:57;;;;;;;2.45;1.15;;;11.50;99.90;;;;;;5017770;28;20049;-83
2022/09/01 04:10:24;;;;;;;2.30;1.10;;;11.50;99.90;;;;;;5017122;28;20041;-83
2022/09/01 04:12:50;;;;;;;0.93;0.82;;;11.40;99.90;;;;;;5032562;28;20046;-83
2022/09/01 04:15:17;;;;;;;0.80;0.73;;;11.40;99.90;;;;;;5033656;28;20040;-83
2022/09/01 04:18:08;;;;;;;2.22;1.35;;;11.30;99.90;;;;;;5016503;28;20075;-83
2022/09/01 04:20:46;;;;;;;1.52;1.10;;;11.40;99.90;;;;;;5001098;28;20172;-83
2022/09/01 04:23:27;;;;;;;1.83;1.02;;;11.30;99.90;;;;;;5033415;28;20065;-83
2022/09/01 04:25:55;;;;;;;1.88;1.55;;;11.20;99.90;;;;;;5032969;28;20120;-81
2022/09/01 04:28:25;;;;;;;2.17;1.20;;;11.20;99.90;;;;;;5029681;28;20076;-81
2022/09/01 04:30:55;;;;;;;2.50;1.48;;;11.20;99.90;;;;;;5033317;28;20391;-81
2022/09/01 04:33:27;;;;;;;6.05;1.30;;;11.20;99.90;;;;;;5032471;28;20046;-81
2022/09/01 04:35:55;;;;;;;2.20;1.45;;;11.10;99.90;;;;;;5027998;28;20120;-81
2022/09/01 04:38:23;;;;;;;1.77;1.20;;;11.10;99.90;;;;;;5032866;28;20090;-81
2022/09/01 04:40:50;;;;;;;1.15;1.00;;;11.20;99.90;;;;;;5016564;28;20041;-81
2022/09/01 04:43:16;;;;;;;1.58;1.00;;;11.10;99.90;;;;;;5016013;28;20080;-81
2022/09/01 04:45:44;;;;;;;3.42;1.42;;;11.10;99.90;;;;;;5032952;28;20042;-81
2022/09/01 04:48:10;;;;;;;1.90;1.40;;;11.00;99.90;;;;;;5032086;28;20068;-81
2022/09/01 04:50:39;;;;;;;1.58;1.02;;;11.00;99.90;;;;;;5016142;28;20069;-81
2022/09/01 04:53:10;;;;;;;2.00;1.25;;;11.00;99.90;;;;;;5031966;28;20120;-81
2022/09/01 04:55:40;;;;;;;1.77;1.23;;;11.00;99.90;;;;;;5028624;28;20116;-81
2022/09/01 04:58:05;;;;;;;1.70;1.00;;;11.00;99.90;;;;;;5032732;28;20041;-81
2022/09/01 05:00:31;;;;;;;2.00;1.38;;;11.00;99.90;;;;;;5018910;28;20041;-81
2022/09/01 05:03:03;;;;;;;2.03;1.10;;;11.00;99.90;;;;;;5032014;28;20040;-81
2022/09/01 05:05:41;;;;;;;1.40;1.10;;;11.00;99.90;;;;;;5031870;28;20049;-81
2022/09/01 05:08:13;;;;;;;3.15;1.58;;;11.00;99.90;;;;;;5012532;28;20049;-81
2022/09/01 05:10:44;;;;;;;1.65;1.27;;;11.00;99.90;;;;;;5018831;28;20037;-81
2022/09/01 05:13:12;;;;;;;1.52;1.10;;;11.10;99.90;;;;;;5031180;28;20120;-81
2022/09/01 05:15:45;;;;;;;1.75;1.20;;;11.10;99.90;;;;;;5032397;28;20056;-80
2022/09/01 05:18:23;;;;;;;1.67;1.27;;;11.10;99.90;;;;;;5032505;28;20052;-80
2022/09/01 05:20:52;;;;;;;1.85;1.35;;;11.10;99.90;;;;;;5014264;28;20077;-81
2022/09/01 05:23:18;;;;;;;2.35;1.23;;;11.10;99.90;;;;;;5015149;28;20372;-80
2022/09/01 05:25:47;;;;;;;2.33;1.38;;;11.20;99.90;;;;;;5031389;28;20045;-80
2022/09/01 05:28:17;;;;;;;2.17;1.20;;;11.20;99.90;;;;;;5028141;28;20408;-80
2022/09/01 05:30:44;;;;;;;1.98;1.02;;;11.20;99.90;;;;;;5031988;28;20080;-82
2022/09/01 05:33:14;;;;;;;1.55;1.25;;;11.30;99.90;;;;;;5015877;28;20048;-82
2022/09/01 05:35:51;;;;;;;1.48;0.90;;;11.30;99.90;;;;;;5031101;28;20392;-82
2022/09/01 05:38:17;;;;;;;2.53;1.50;;;11.30;99.90;;;;;;5011307;28;20033;-82
2022/09/01 05:40:43;;;;;;;2.13;1.38;;;11.40;99.90;;;;;;5031738;28;20174;-82
2022/09/01 05:43:13;;;;;;;1.95;0.98;;;11.50;99.90;;;;;;5015025;28;20083;-82
2022/09/01 05:45:42;;;;;;;1.63;1.17;;;11.60;99.90;;;;;;5015149;28;20045;-82
2022/09/01 05:48:16;;;;;;;2.15;1.20;;;11.60;99.90;;;;;;5015998;28;20042;-83
2022/09/01 05:50:42;;;;;;;2.70;1.38;;;11.70;99.90;;;;;;5030992;28;20069;-83
2022/09/01 05:53:16;;;;;;;1.63;1.25;;;11.80;99.90;;;;;;5014947;28;20053;-83
2022/09/01 05:55:47;;;;;;;8.18;1.92;;;11.90;99.90;;;;;;5032244;28;20050;-83
2022/09/01 05:58:16;;;;;;;5.07;1.85;;;12.60;99.90;;;;;;5030953;28;20044;-83
2022/09/01 06:00:46;;;;;;;7.57;1.80;;;12.10;99.90;;;;;;5030862;28;20130;-83
2022/09/01 06:03:13;;;;;;;5.20;2.10;;;12.20;99.90;;;;;;5015454;28;20384;-83
2022/09/01 06:05:39;;;;;;;10.20;2.22;;;12.80;99.90;;;;;;4997518;28;20037;-83
2022/09/01 06:08:09;;;;;;;13.07;2.65;;;12.60;99.90;;;;;;5029675;28;20128;-83
2022/09/01 06:10:38;;;;;;;9.43;3.00;;;12.40;99.90;;;;;;5014375;28;20041;-84
2022/09/01 06:13:05;;;;;;;13.27;3.20;;;12.60;99.90;;;;;;5014767;28;20040;-84
2022/09/01 06:15:32;;;;;;;11.85;2.47;;;12.70;99.90;;;;;;5031663;28;20037;-84
2022/09/01 06:17:59;;;;;;;9.32;2.30;;;12.80;99.90;;;;;;5016743;28;20120;-84
2022/09/01 06:20:26;;;;;;;18.35;2.50;;;13.60;99.90;;;;;;5018246;28;20148;-81
2022/09/01 06:22:52;;;;;;;6.57;2.33;;;14.20;99.90;;;;;;5016703;28;20072;-81
2022/09/01 06:25:20;;;;;;;2.35;1.65;;;14.50;99.90;;;;;;5035279;28;20045;-81
2022/09/01 06:27:46;;;;;;;10.38;2.30;;;14.60;99.90;;;;;;5035266;28;20545;-81
2022/09/01 06:30:19;;;;;;;5.72;2.40;;;16.30;99.90;;;;;;5034701;28;20103;-80
2022/09/01 06:32:48;;;;;;;2.78;1.70;;;18.10;99.90;;;;;;5034958;28;20048;-81
2022/09/01 06:35:15;;;;;;;2.15;1.60;;;19.80;99.90;;;;;;5034992;28;20045;-81
2022/09/01 06:37:44;;;;;;;2.83;1.60;;;21.40;99.90;;;;;;5018129;28;20046;-81
2022/09/01 06:40:16;;;;;;;2.55;1.48;;;22.30;99.00;;;;;;5013539;28;20045;-81
2022/09/01 06:42:47;;;;;;;6.70;1.55;;;23.60;97.50;;;;;;5035385;28;20080;-81
2022/09/01 06:45:19;;;;;;;3.22;1.50;;;24.40;96.10;;;;;;5035204;28;20053;-81
2022/09/01 06:47:46;;;;;;;9.65;2.35;;;25.40;93.20;;;;;;5017657;28;20045;-81
2022/09/01 06:50:14;;;;;;;5.47;1.85;;;25.60;91.90;;;;;;5017858;28;20567;-81
2022/09/01 06:52:41;;;;;;;9.82;1.40;;;25.80;91.40;;;;;;5034568;28;20171;-81
2022/09/01 06:55:09;;;;;;;1.92;0.82;;;26.60;90.40;;;;;;5034899;28;20399;-82
2022/09/01 06:57:36;;;;;;;4.88;1.77;;;26.70;90.10;;;;;;5017580;28;20052;-81
2022/09/01 07:00:06;;;;;;;2.20;1.10;;;26.50;89.80;;;;;;5034967;28;20068;-81
2022/09/01 07:02:32;;;;;;;5.55;2.45;;;26.80;88.80;;;;;;5014577;28;20179;-81
2022/09/01 07:04:58;;;;;;;5.70;1.77;;;27.20;89.30;;;;;;5014808;28;20485;-81
2022/09/01 07:07:26;;;;;;;2.83;1.10;;;27.80;86.70;;;;;;5033567;28;20041;-81
2022/09/01 07:09:52;;;;;;;2.05;1.20;;;28.20;85.70;;;;;;5031489;28;20056;-82
2022/09/01 07:12:18;;;;;;;1.10;0.80;;;27.50;83.30;;;;;;5029487;28;20037;-81
2022/09/01 07:14:47;;;;;;;1.80;1.17;;;26.70;85.30;;;;;;5015189;28;20038;-81
2022/09/01 07:17:14;;;;;;;3.47;0.88;;;26.90;87.80;;;;;;5011996;28;20045;-81
2022/09/01 07:19:40;;;;;;;26.42;3.10;;;26.80;87.00;;;;;;5014943;28;20037;-81
2022/09/01 07:22:05;;;;;;;17.25;3.75;;;25.80;87.20;;;;;;5032388;28;20416;-81
2022/09/01 07:24:32;;;;;;;73.00;8.32;;;26.00;87.40;;;;;;5016789;28;20041;-81
2022/09/01 07:26:57;;;;;;;5.28;1.80;;;25.70;88.40;;;;;;5033822;28;20064;-82
2022/09/01 07:29:24;;;;;;;5.35;1.50;;;25.60;88.00;;;;;;5029554;28;20034;-83
2022/09/01 07:31:54;;;;;;;4.75;1.17;;;25.60;87.10;;;;;;5033756;28;20045;-83
2022/09/01 07:34:20;;;;;;;2.17;1.00;;;25.60;88.30;;;;;;5032110;28;20537;-83
2022/09/01 07:36:46;;;;;;;4.15;1.38;;;26.10;87.20;;;;;;5033936;28;20064;-83
2022/09/01 07:39:13;;;;;;;1.80;0.80;;;26.60;86.20;;;;;;5017651;28;20045;-83
2022/09/01 07:41:40;;;;;;;2.35;1.35;;;26.60;84.90;;;;;;5017285;28;20495;-83
2022/09/01 07:44:12;;;;;;;2.45;1.17;;;26.30;85.40;;;;;;5016993;28;20087;-84
2022/09/01 07:46:39;;;;;;;2.63;0.98;;;25.80;86.00;;;;;;5033182;28;20037;-84
2022/09/01 07:49:05;;;;;;;3.97;1.50;;;25.00;87.50;;;;;;5033067;28;20120;-84
2022/09/01 07:51:32;;;;;;;5.75;2.00;;;24.10;89.70;;;;;;5034003;28;20432;-83
2022/09/01 07:54:00;;;;;;;2.92;1.45;;;23.40;91.00;;;;;;5031922;28;20052;-84
2022/09/01 07:56:29;;;;;;;2.08;1.23;;;23.70;93.00;;;;;;5035804;28;20076;-84
2022/09/01 07:58:56;;;;;;;3.25;1.48;;;24.80;90.90;;;;;;5034203;28;20049;-84
2022/09/01 08:01:25;;;;;;;1.35;0.80;;;25.60;91.20;;;;;;5020668;28;20083;-82
2022/09/01 08:03:55;;;;;;;2.08;1.00;;;27.00;87.60;;;;;;5019728;28;20041;-82
2022/09/01 08:06:23;;;;;;;0.80;0.63;;;28.00;83.70;;;;;;5036380;28;20041;-82
2022/09/01 08:08:50;;;;;;;2.08;1.08;;;28.70;84.40;;;;;;5036672;28;20544;-82
2022/09/01 08:11:24;;;;;;;1.23;0.95;;;29.60;83.00;;;;;;5020075;28;20093;-82
2022/09/01 08:13:54;;;;;;;1.10;1.00;;;30.40;80.50;;;;;;5032290;28;20052;-82
2022/09/01 08:16:21;;;;;;;3.20;0.77;;;31.00;78.00;;;;;;5020113;28;20517;-82
2022/09/01 08:18:47;;;;;;;2.08;1.13;;;31.00;77.50;;;;;;5020053;28;20041;-82
2022/09/01 08:21:14;;;;;;;1.60;0.93;;;30.70;77.50;;;;;;5035010;28;20049;-82
2022/09/01 08:23:40;;;;;;;2.13;0.80;;;31.40;77.60;;;;;;5036006;28;20707;-82
2022/09/01 08:26:09;;;;;;;1.77;1.00;;;32.00;75.70;;;;;;5017489;28;20033;-82
2022/09/01 08:28:35;;;;;;;1.70;1.10;;;32.10;76.10;;;;;;5003508;28;20049;-82
2022/09/01 08:31:05;;;;;;;3.15;1.33;;;32.40;73.10;;;;;;5036090;28;20033;-82
2022/09/01 08:33:33;;;;;;;1.73;0.77;;;32.30;73.30;;;;;;5036011;28;20045;-82
2022/09/01 08:36:00;;;;;;;1.42;1.00;;;32.20;73.40;;;;;;5033658;28;20379;-82
2022/09/01 08:38:26;;;;;;;2.00;0.95;;;31.70;74.10;;;;;;5036011;28;20033;-82
2022/09/01 08:40:55;;;;;;;1.25;0.90;;;32.10;73.90;;;;;;5018934;28;20430;-82
2022/09/01 08:43:40;;;;;;;1.50;1.00;;;32.10;72.70;;;;;;5036373;28;20037;-82
2022/09/01 08:46:33;;;;;;;1.73;0.95;;;32.70;73.70;;;;;;5033133;28;20463;-82
2022/09/01 08:49:03;;;;;;;0.50;0.50;;;33.00;73.90;;;;;;5035673;28;20048;-82
2022/09/01 08:51:51;;;;;;;2.22;0.90;;;33.80;72.50;;;;;;5035635;28;20056;-83
2022/09/01 08:54:17;;;;;;;2.20;0.90;;;33.80;69.70;;;;;;5019808;28;20045;-84
2022/09/01 08:56:43;;;;;;;0.90;0.77;;;33.40;68.90;;;;;;5032379;28;20044;-84
2022/09/01 08:59:11;;;;;;;1.58;1.00;;;34.00;68.70;;;;;;5031706;28;20115;-84
2022/09/01 09:01:59;;;;;;;0.77;0.60;;;33.80;69.20;;;;;;5036016;28;20472;-84
2022/09/01 09:04:28;;;;;;;2.75;1.00;;;33.60;68.90;;;;;;5033233;28;20045;-84
2022/09/01 09:07:04;;;;;;;2.22;1.27;;;33.30;68.00;;;;;;5042712;22;20162;-83
2022/09/01 09:09:40;;;;;;;1.52;0.65;;;33.70;68.70;;;;;;5035654;28;20132;-79
2022/09/01 09:12:09;;;;;;;1.35;0.90;;;34.10;69.20;;;;;;5035096;28;20049;-79
2022/09/01 09:15:24;;;;;;;4.00;0.98;;;34.60;67.00;;;;;;5035218;28;20041;-79
2022/09/01 09:17:58;;;;;;;1.45;0.90;;;34.30;65.40;;;;;;5034647;28;20033;-79
2022/09/01 09:20:26;;;;;;;1.90;0.80;;;34.10;68.30;;;;;;5033763;28;20072;-79
2022/09/01 09:22:53;;;;;;;1.95;0.60;;;34.20;67.10;;;;;;5034068;28;20550;-79
2022/09/01 09:25:19;;;;;;;1.33;0.63;;;34.70;66.50;;;;;;5018873;28;20045;-81
2022/09/01 09:27:49;;;;;;;0.98;0.50;;;35.30;66.30;;;;;;5034561;28;20043;-82
2022/09/01 09:30:26;;;;;;;0.68;0.57;;;35.10;66.60;;;;;;5035372;28;20044;-81
2022/09/01 09:33:04;;;;;;;2.13;0.73;;;34.00;65.70;;;;;;5035295;28;20053;-82
2022/09/01 09:35:40;;;;;;;3.72;1.00;;;33.60;64.90;;;;;;5032388;28;20544;-81
2022/09/01 09:38:17;;;;;;;0.50;0.50;;;33.90;66.30;;;;;;5034697;28;20056;-81
2022/09/01 09:41:13;;;;;;;2.08;0.75;;;33.60;66.10;;;;;;5018289;28;20045;-82
2022/09/01 09:43:58;;;;;;;;;;;33.70;65.20;;;;;;5034822;28;20040;-82
2022/09/01 09:46:35;;;;;;;1.10;0.70;;;33.80;65.10;;;;;;5050724;28;20397;-81
2022/09/01 09:49:12;;;;;;;0.68;0.63;;;34.40;64.70;;;;;;5034006;28;20045;-82
2022/09/01 09:51:41;;;;;;;1.73;0.68;;;34.20;65.20;;;;;;5033424;28;20041;-82
2022/09/01 09:54:15;;;;;;;0.52;0.35;;;34.00;64.30;;;;;;5034548;28;20052;-81
2022/09/01 09:56:45;;;;;;;0.43;0.43;;;34.80;63.90;;;;;;5034410;28;20048;-82
2022/09/01 09:59:38;;;;;;;1.15;0.65;;;34.60;63.60;;;;;;5034003;28;20491;-82
2022/09/01 10:02:27;;;;;;;2.05;0.50;;;34.80;63.20;;;;;;5018027;28;20446;-82
2022/09/01 10:04:53;;;;;;;0.75;0.43;;;33.70;62.00;;;;;;5014775;28;20452;-82
2022/09/01 10:07:39;;;;;;;1.00;0.60;;;33.20;64.30;;;;;;5034163;28;20107;-81
2022/09/01 10:10:23;;;;;;;0.90;0.47;;;33.70;62.50;;;;;;5033328;28;20052;-82
2022/09/01 10:12:52;;;;;;;0.52;0.50;;;34.00;62.50;;;;;;5031815;28;20048;-82
2022/09/01 10:15:22;;;;;;;0.98;0.60;;;33.30;62.80;;;;;;5034556;28;20120;-80
2022/09/01 10:17:50;;;;;;;2.10;0.60;;;32.70;62.30;;;;;;5034798;28;20079;-80
2022/09/01 10:20:22;;;;;;;2.08;0.50;;;31.60;63.10;;;;;;5018088;28;20044;-80
2022/09/01 10:22:49;;;;;;;2.53;1.00;;;32.20;66.20;;;;;;5031134;28;20076;-80
2022/09/01 10:25:28;;;;;;;0.77;0.70;;;32.10;63.30;;;;;;5033367;28;20045;-80
2022/09/01 10:28:11;;;;;;;1.02;0.70;;;31.80;62.30;;;;;;5049816;28;20028;-80
2022/09/01 10:30:41;;;;;;;0.98;0.60;;;31.80;63.00;;;;;;5030678;28;20037;-80
2022/09/01 10:33:08;;;;;;;2.22;0.60;;;32.20;62.80;;;;;;5018393;28;20033;-80
2022/09/01 10:35:36;;;;;;;1.08;0.40;;;33.40;64.00;;;;;;5034514;28;20112;-80
2022/09/01 10:38:09;;;;;;;1.98;0.80;;;33.50;61.90;;;;;;5034314;28;20080;-80
2022/09/01 10:40:39;;;;;;;1.95;0.90;;;34.50;62.60;;;;;;5035054;28;20098;-80
2022/09/01 10:43:27;;;;;;;0.73;0.47;;;33.50;60.80;;;;;;5017528;28;20516;-80
2022/09/01 10:45:53;;;;;;;0.77;0.50;;;31.80;60.70;;;;;;5034476;28;20068;-80
2022/09/01 10:48:19;;;;;;;0.60;0.52;;;30.70;60.90;;;;;;5034920;28;20386;-80
2022/09/01 10:50:53;;;;;;;1.73;0.80;;;30.00;64.10;;;;;;5034434;28;20128;-80
2022/09/01 10:53:36;;;;;;;1.38;0.80;;;30.00;65.70;;;;;;5029944;28;20084;-80
2022/09/01 10:56:20;;;;;;;1.50;0.55;;;29.30;63.60;;;;;;5032283;28;20028;-80
2022/09/01 10:59:07;;;;;;;0.35;0.32;;;28.60;62.70;;;;;;5034586;28;20059;-80
2022/09/01 11:01:39;;;;;;;2.63;0.90;;;27.60;65.40;;;;;;5029274;28;20055;-80
2022/09/01 11:04:14;;;;;;;2.20;0.95;;;28.30;66.20;;;;;;5035174;28;20037;-80
2022/09/01 11:06:57;;;;;;;1.17;0.65;;;29.40;65.40;;;;;;5021109;28;20044;-80
2022/09/01 11:09:38;;;;;;;0.90;0.60;;;30.60;63.60;;;;;;5038282;28;20529;-79
2022/09/01 11:12:30;;;;;;;0.70;0.60;;;30.80;65.90;;;;;;5020620;28;20037;-79
2022/09/01 11:15:05;;;;;;;1.15;0.75;;;30.70;62.50;;;;;;5021078;28;20418;-79
2022/09/01 11:17:49;;;;;;;;;;;30.30;63.20;;;;;;5017877;28;20033;-79
2022/09/01 11:20:23;;;;;;;1.10;0.60;;;30.20;64.10;;;;;;5040447;28;19923;-81
2022/09/01 11:23:22;;;;;;;0.70;0.60;;;30.80;65.90;;;;;;5036158;28;20526;-82
2022/09/01 11:25:49;;;;;;;1.02;0.40;;;31.50;62.20;;;;;;5017063;28;20040;-81
2022/09/01 11:28:15;;;;;;;0.50;0.50;;;31.30;61.50;;;;;;5037524;28;20055;-82
2022/09/01 11:30:49;;;;;;;1.08;0.63;;;30.30;62.80;;;;;;5020010;28;20041;-82
2022/09/01 11:33:15;;;;;;;0.50;0.50;;;29.60;63.60;;;;;;5034597;28;20110;-81
2022/09/01 11:35:45;;;;;;;2.65;0.90;;;28.40;65.20;;;;;;5037532;28;20040;-82
2022/09/01 11:38:15;;;;;;;0.63;0.50;;;28.10;64.50;;;;;;5037273;28;20129;-80
2022/09/01 11:40:42;;;;;;;1.17;0.63;;;28.20;66.10;;;;;;5020613;28;20094;-80
2022/09/01 11:43:13;;;;;;;0.93;0.57;;;28.10;65.30;;;;;;5036519;28;20553;-80
2022/09/01 11:45:54;;;;;;;0.52;0.47;;;28.30;65.80;;;;;;5033418;28;20490;-80
2022/09/01 11:48:20;;;;;;;1.00;0.45;;;28.00;64.20;;;;;;5032191;28;20041;-80
2022/09/01 11:51:00;;;;;;;1.60;0.60;;;27.60;65.90;;;;;;5035230;28;20053;-80
2022/09/01 11:53:26;;;;;;;0.55;0.52;;;27.30;66.50;;;;;;5036735;28;20235;-80
2022/09/01 11:55:55;;;;;;;2.05;0.80;;;27.20;66.50;;;;;;5036813;28;20040;-80
2022/09/01 11:58:32;;;;;;;1.52;0.85;;;26.70;66.90;;;;;;5037013;28;20076;-79
2022/09/01 12:01:17;;;;;;;0.88;0.50;;;26.40;67.70;;;;;;5033490;28;20036;-79
2022/09/01 12:03:45;;;;;;;0.95;0.70;;;26.30;68.90;;;;;;5036854;28;20049;-79
2022/09/01 12:06:26;;;;;;;0.85;0.65;;;25.90;69.80;;;;;;5036629;28;20037;-79
2022/09/01 12:08:58;;;;;;;0.98;0.68;;;25.80;70.20;;;;;;5032596;28;20056;-79
2022/09/01 12:11:32;;;;;;;0.85;0.60;;;26.50;70.40;;;;;;5036965;28;20168;-82
2022/09/01 12:14:02;;;;;;;0.95;0.65;;;27.50;70.80;;;;;;5019430;28;20033;-82
2022/09/01 12:16:30;;;;;;;1.15;0.60;;;27.50;67.00;;;;;;5034892;28;20040;-82
2022/09/01 12:18:58;;;;;;;1.40;0.57;;;26.90;65.60;;;;;;5036801;28;20356;-81
2022/09/01 12:21:27;;;;;;;1.48;0.90;;;26.80;66.50;;;;;;5033249;28;20065;-81
2022/09/01 12:24:10;;;;;;;2.08;0.90;;;26.30;66.50;;;;;;5019889;28;20406;-81
2022/09/01 12:26:38;;;;;;;0.60;0.50;;;25.80;66.70;;;;;;5036253;28;20044;-81
2022/09/01 12:29:05;;;;;;;1.45;0.50;;;25.30;68.40;;;;;;5036456;28;20045;-80
2022/09/01 12:31:32;;;;;;;1.55;0.65;;;25.30;68.80;;;;;;5035893;28;20045;-80
2022/09/01 12:34:01;;;;;;;0.77;0.60;;;25.70;67.40;;;;;;5031480;28;20033;-79
2022/09/01 12:36:35;;;;;;;0.60;0.50;;;26.20;68.30;;;;;;5035843;28;20076;-79
2022/09/01 12:39:24;;;;;;;2.47;0.88;;;26.80;66.90;;;;;;5036328;28;20080;-79
2022/09/01 12:42:06;;;;;;;1.13;0.70;;;27.30;67.10;;;;;;5022312;28;20095;-79
2022/09/01 12:44:38;;;;;;;1.20;0.73;;;27.50;66.80;;;;;;5034642;28;20049;-80
2022/09/01 12:47:09;;;;;;;0.63;0.45;;;27.30;65.40;;;;;;5037229;28;20119;-81
2022/09/01 12:49:44;;;;;;;0.40;0.35;;;26.90;67.10;;;;;;5030646;28;20037;-79
2022/09/01 12:52:18;;;;;;;1.17;0.70;;;27.20;67.80;;;;;;5017021;28;20049;-79
2022/09/01 12:55:05;;;;;;;0.38;0.30;;;27.80;65.80;;;;;;5035105;28;20033;-79
2022/09/01 12:57:48;;;;;;;1.00;0.50;;;28.50;66.10;;;;;;5009132;28;20040;-79
2022/09/01 13:00:19;;;;;;;0.95;0.40;;;29.00;64.30;;;;;;5035054;28;20052;-82
2022/09/01 13:03:06;;;;;;;0.93;0.50;;;29.30;63.60;;;;;;5051772;28;20044;-82
2022/09/01 13:05:40;;;;;;;0.85;0.40;;;28.80;63.30;;;;;;5035480;28;20048;-82
2022/09/01 13:08:12;;;;;;;0.63;0.60;;;28.50;64.90;;;;;;5035053;28;20071;-82
2022/09/01 13:10:52;;;;;;;0.57;0.47;;;28.30;64.80;;;;;;5035806;28;20033;-82